createdAt,value
2018-10-02T00:00:27.134Z,5.74
2018-10-02T00:02:56.017Z,5.82
2018-10-02T00:05:24.456Z,5.73
2018-10-02T00:07:52.798Z,5.84
2018-10-02T00:10:21.109Z,5.80
2018-10-02T00:12:54.714Z,5.89
2018-10-02T00:15:23.082Z,6.02
2018-10-02T00:17:51.562Z,5.82
2018-10-02T00:20:19.921Z,5.82
2018-10-02T00:22:48.294Z,5.68
2018-10-02T00:25:16.690Z,5.81
2018-10-02T00:27:45.070Z,6.00
2018-10-02T00:30:13.626Z,5.81
2018-10-02T00:32:41.962Z,5.69
2018-10-02T00:35:10.330Z,5.71
2018-10-02T00:37:38.738Z,5.73
2018-10-02T00:40:07.149Z,5.64
2018-10-02T00:42:35.502Z,5.55
2018-10-02T00:45:03.930Z,5.57
2018-10-02T00:47:32.234Z,5.58
2018-10-02T00:50:00.535Z,5.53
2018-10-02T00:52:28.875Z,5.49
2018-10-02T00:54:57.162Z,5.51
2018-10-02T00:57:25.497Z,5.64
2018-10-02T00:59:53.792Z,5.52
2018-10-02T01:02:22.114Z,5.53
2018-10-02T01:04:50.430Z,5.61
2018-10-02T01:07:18.798Z,5.56
2018-10-02T01:09:47.111Z,5.74
2018-10-02T01:12:15.483Z,5.62
2018-10-02T01:14:43.828Z,5.60
2018-10-02T01:17:12.207Z,5.54
2018-10-02T01:19:40.620Z,5.59
2018-10-02T01:22:08.957Z,5.48
2018-10-02T01:24:37.278Z,5.58
2018-10-02T01:27:05.770Z,5.50
2018-10-02T01:29:34.084Z,5.49
2018-10-02T01:32:02.434Z,5.51
2018-10-02T01:34:30.799Z,5.44
2018-10-02T01:36:59.110Z,5.47
2018-10-02T01:39:27.436Z,5.58
2018-10-02T01:41:55.737Z,5.46
2018-10-02T01:44:24.090Z,5.52
2018-10-02T01:46:52.474Z,5.41
2018-10-02T01:49:20.771Z,5.60
2018-10-02T01:51:49.102Z,5.46
2018-10-02T01:54:17.398Z,5.53
2018-10-02T01:56:45.747Z,5.44
2018-10-02T01:59:14.069Z,5.40
2018-10-02T02:01:42.499Z,5.41
2018-10-02T02:04:10.828Z,5.61
2018-10-02T02:06:39.157Z,5.55
2018-10-02T02:09:07.878Z,5.42
2018-10-02T02:11:36.478Z,5.48
2018-10-02T02:14:04.864Z,5.52
2018-10-02T02:16:33.215Z,5.52
2018-10-02T02:19:01.611Z,5.48
2018-10-02T02:21:29.914Z,5.41
2018-10-02T02:23:58.247Z,5.49
2018-10-02T02:26:26.608Z,5.46
2018-10-02T02:28:54.895Z,5.54
2018-10-02T02:31:23.219Z,5.48
2018-10-02T02:33:51.539Z,5.29
2018-10-02T02:36:32.392Z,5.37
2018-10-02T02:39:00.740Z,5.24
2018-10-02T02:41:29.129Z,5.26
2018-10-02T02:43:57.446Z,5.30
2018-10-02T02:46:25.745Z,5.28
2018-10-02T02:48:59.548Z,5.37
2018-10-02T02:51:31.398Z,5.23
2018-10-02T02:53:59.730Z,5.25
2018-10-02T02:56:28.911Z,5.21
2018-10-02T02:58:58.185Z,5.19
2018-10-02T03:01:26.909Z,5.27
2018-10-02T03:03:55.215Z,5.27
2018-10-02T03:06:23.587Z,5.43
2018-10-02T03:08:51.927Z,5.55
2018-10-02T03:11:20.266Z,5.47
2018-10-02T03:13:48.606Z,5.40
2018-10-02T03:16:16.906Z,5.58
2018-10-02T03:18:45.254Z,5.46
2018-10-02T03:21:13.613Z,5.52
2018-10-02T03:23:42.045Z,5.59
2018-10-02T03:26:10.394Z,5.47
2018-10-02T03:28:38.748Z,5.52
2018-10-02T03:31:07.453Z,5.32
2018-10-02T03:33:35.865Z,5.37
2018-10-02T03:36:04.158Z,5.34
2018-10-02T03:38:32.510Z,5.42
2018-10-02T03:41:00.858Z,5.38
2018-10-02T03:43:29.227Z,5.34
2018-10-02T03:45:57.579Z,5.38
2018-10-02T03:48:25.914Z,5.38
2018-10-02T03:50:54.228Z,5.48
2018-10-02T03:53:22.594Z,5.43
2018-10-02T03:55:51.080Z,5.39
2018-10-02T03:58:19.581Z,5.41
2018-10-02T04:00:47.912Z,5.51
2018-10-02T04:03:16.261Z,5.47
2018-10-02T04:05:44.798Z,5.51
2018-10-02T04:08:13.154Z,5.39
2018-10-02T04:10:41.682Z,5.49
2018-10-02T04:13:10.140Z,5.47
2018-10-02T04:15:38.556Z,5.37
2018-10-02T04:18:06.946Z,5.56
2018-10-02T04:20:35.290Z,5.71
2018-10-02T04:23:03.594Z,5.63
2018-10-02T04:25:31.949Z,5.47
2018-10-02T04:28:00.682Z,5.41
2018-10-02T04:30:29.118Z,5.61
2018-10-02T04:32:57.408Z,5.46
2018-10-02T04:35:25.778Z,5.35
2018-10-02T04:37:54.331Z,5.36
2018-10-02T04:40:22.668Z,5.31
2018-10-02T04:42:50.978Z,5.29
2018-10-02T04:45:19.355Z,5.40
2018-10-02T04:47:47.692Z,5.50
2018-10-02T04:50:16.048Z,5.42
2018-10-02T04:52:44.351Z,5.46
2018-10-02T04:55:12.776Z,5.49
2018-10-02T04:57:41.112Z,5.61
2018-10-02T05:00:09.771Z,5.65
2018-10-02T05:02:38.100Z,5.49
2018-10-02T05:05:06.483Z,5.57
2018-10-02T05:07:34.902Z,5.57
2018-10-02T05:10:03.275Z,5.54
2018-10-02T05:12:31.623Z,5.55
2018-10-02T05:14:59.983Z,5.59
2018-10-02T05:17:28.436Z,5.52
2018-10-02T05:19:56.789Z,5.58
2018-10-02T05:22:25.144Z,5.56
2018-10-02T05:24:53.581Z,5.57
2018-10-02T05:27:22.169Z,5.59
2018-10-02T05:29:50.392Z,5.59
2018-10-02T05:32:18.814Z,5.67
2018-10-02T05:34:47.143Z,5.63
2018-10-02T05:37:15.476Z,5.72
2018-10-02T05:39:43.785Z,5.66
2018-10-02T05:42:12.164Z,5.64
2018-10-02T05:44:40.526Z,5.66
2018-10-02T05:47:08.848Z,5.51
2018-10-02T05:49:37.610Z,5.65
2018-10-02T05:52:05.959Z,5.63
2018-10-02T05:54:34.330Z,5.72
2018-10-02T05:57:02.767Z,5.58
2018-10-02T05:59:31.159Z,5.73
2018-10-02T06:02:00.078Z,5.70
2018-10-02T06:04:28.575Z,5.69
2018-10-02T06:06:57.005Z,5.65
2018-10-02T06:09:25.356Z,5.70
2018-10-02T06:11:53.727Z,5.76
2018-10-02T06:14:22.149Z,5.73
2018-10-02T06:16:50.486Z,5.72
2018-10-02T06:19:18.883Z,5.79
2018-10-02T06:21:47.290Z,5.82
2018-10-02T06:24:15.867Z,5.77
2018-10-02T06:26:44.189Z,5.83
2018-10-02T06:29:12.583Z,5.77
2018-10-02T06:31:40.895Z,5.81
2018-10-02T06:34:09.242Z,5.91
2018-10-02T06:36:37.677Z,5.71
2018-10-02T06:39:07.565Z,5.87
2018-10-02T06:41:35.991Z,5.95
2018-10-02T06:44:04.752Z,6.00
2018-10-02T06:46:33.149Z,6.06
2018-10-02T06:49:01.489Z,6.03
2018-10-02T06:51:29.961Z,6.00
2018-10-02T06:53:58.446Z,6.03
2018-10-02T06:56:26.764Z,5.98
2018-10-02T06:58:55.114Z,5.87
2018-10-02T07:01:23.437Z,5.99
2018-10-02T07:03:51.802Z,6.17
2018-10-02T07:06:20.137Z,5.83
2018-10-02T07:08:48.733Z,5.97
2018-10-02T07:11:16.998Z,5.92
2018-10-02T07:13:45.322Z,5.90
2018-10-02T07:16:13.659Z,5.98
2018-10-02T07:18:42.208Z,5.99
2018-10-02T07:21:10.522Z,5.89
2018-10-02T07:23:38.863Z,5.71
2018-10-02T07:26:07.365Z,5.86
2018-10-02T07:28:36.062Z,5.90
2018-10-02T07:31:04.438Z,5.89
2018-10-02T07:33:32.781Z,5.89
2018-10-02T07:36:01.183Z,5.89
2018-10-02T07:38:29.655Z,5.98
2018-10-02T07:40:58.009Z,5.98
2018-10-02T07:43:26.369Z,5.92
2018-10-02T07:45:54.777Z,5.81
2018-10-02T07:48:23.192Z,5.99
2018-10-02T07:50:51.550Z,6.00
2018-10-02T07:53:19.863Z,6.02
2018-10-02T07:55:48.306Z,6.04
2018-10-02T07:58:16.626Z,5.98
2018-10-02T08:00:45.090Z,6.14
2018-10-02T08:03:13.407Z,6.14
2018-10-02T08:05:41.847Z,6.18
2018-10-02T08:08:10.193Z,6.20
2018-10-02T08:10:38.538Z,6.37
2018-10-02T08:13:06.875Z,6.29
2018-10-02T08:15:35.343Z,6.33
2018-10-02T08:18:03.721Z,6.23
2018-10-02T08:20:32.155Z,6.31
2018-10-02T08:23:00.656Z,6.22
2018-10-02T08:25:28.989Z,6.31
2018-10-02T08:27:57.893Z,6.35
2018-10-02T08:30:26.354Z,6.39
2018-10-02T08:32:54.587Z,6.47
2018-10-02T08:35:23.121Z,6.37
2018-10-02T08:37:51.423Z,6.42
2018-10-02T08:40:19.992Z,6.52
2018-10-02T08:42:48.401Z,6.56
2018-10-02T08:48:10.139Z,6.48
2018-10-02T08:50:38.693Z,6.50
2018-10-02T08:53:07.061Z,6.59
2018-10-02T08:55:36.478Z,6.56
2018-10-02T08:58:04.935Z,6.54
2018-10-02T09:00:33.283Z,6.53
2018-10-02T09:03:01.688Z,6.61
2018-10-02T09:05:29.994Z,6.50
2018-10-02T09:07:59.197Z,6.55
2018-10-02T09:10:27.523Z,6.64
2018-10-02T09:12:56.076Z,6.74
2018-10-02T09:15:24.391Z,6.74
2018-10-02T09:17:52.740Z,6.78
2018-10-02T09:20:21.142Z,6.77
2018-10-02T09:22:49.474Z,6.88
2018-10-02T09:25:17.816Z,6.94
2018-10-02T09:27:46.167Z,6.81
2018-10-02T09:30:19.694Z,6.74
2018-10-02T09:32:53.223Z,6.85
2018-10-02T09:35:27.157Z,6.96
2018-10-02T09:38:00.770Z,7.00
2018-10-02T09:40:34.331Z,7.00
2018-10-02T09:43:08.033Z,7.00
2018-10-02T09:45:36.381Z,7.03
2018-10-02T09:48:12.431Z,7.09
2018-10-02T09:50:40.858Z,7.00
2018-10-02T09:53:09.095Z,7.03
2018-10-02T09:55:37.466Z,7.05
2018-10-02T09:58:05.875Z,7.21
2018-10-02T10:00:39.587Z,7.18
2018-10-02T10:03:07.915Z,7.14
2018-10-02T10:05:36.211Z,7.12
2018-10-02T10:08:04.503Z,7.01
2018-10-02T10:10:32.956Z,7.09
2018-10-02T10:13:01.300Z,6.98
2018-10-02T10:15:29.628Z,7.01
2018-10-02T10:17:57.947Z,7.06
2018-10-02T10:20:26.338Z,7.04
2018-10-02T10:22:54.684Z,6.91
2018-10-02T10:25:23.035Z,7.00
2018-10-02T10:27:51.364Z,7.22
2018-10-02T10:30:19.695Z,7.30
2018-10-02T10:32:48.033Z,7.33
2018-10-02T10:35:16.508Z,7.35
2018-10-02T10:37:44.880Z,7.23
2018-10-02T10:40:13.212Z,7.34
2018-10-02T10:42:41.543Z,7.17
2018-10-02T10:45:09.881Z,7.16
2018-10-02T10:47:38.244Z,7.23
2018-10-02T10:50:06.652Z,7.23
2018-10-02T10:52:35.123Z,7.36
2018-10-02T10:55:14.840Z,7.42
2018-10-02T10:57:43.244Z,7.40
2018-10-02T11:00:11.588Z,7.42
2018-10-02T11:02:39.907Z,7.37
2018-10-02T11:05:08.286Z,7.41
2018-10-02T11:07:36.604Z,7.42
2018-10-02T11:10:04.915Z,7.35
2018-10-02T11:12:33.245Z,7.40
2018-10-02T11:15:01.561Z,7.43
2018-10-02T11:17:29.894Z,7.58
2018-10-02T11:19:58.243Z,7.51
2018-10-02T11:22:26.602Z,7.44
2018-10-02T11:24:55.874Z,7.47
2018-10-02T11:27:24.345Z,7.64
2018-10-02T11:29:52.889Z,7.41
2018-10-02T11:32:21.631Z,7.63
2018-10-02T11:34:49.929Z,7.71
2018-10-02T11:37:18.332Z,7.81
2018-10-02T11:39:46.770Z,7.75
2018-10-02T11:42:15.114Z,7.61
2018-10-02T11:44:43.613Z,7.73
2018-10-02T11:47:11.893Z,8.00
2018-10-02T11:49:40.308Z,7.82
2018-10-02T11:52:09.435Z,7.68
2018-10-02T11:54:37.902Z,7.73
2018-10-02T11:57:06.233Z,7.74
2018-10-02T11:59:34.528Z,7.97
2018-10-02T12:02:02.883Z,7.90
2018-10-02T12:04:31.190Z,7.98
2018-10-02T12:06:59.505Z,8.05
2018-10-02T12:09:27.808Z,7.83
2018-10-02T12:11:56.343Z,7.93
2018-10-02T12:14:24.874Z,7.71
2018-10-02T12:16:53.218Z,7.92
2018-10-02T12:19:21.745Z,7.90
2018-10-02T12:21:51.155Z,7.87
2018-10-02T12:24:20.398Z,7.97
2018-10-02T12:26:49.472Z,8.06
2018-10-02T12:29:20.110Z,8.05
2018-10-02T12:31:49.446Z,7.72
2018-10-02T12:34:17.776Z,7.87
2018-10-02T12:36:48.546Z,8.06
2018-10-02T12:39:18.229Z,7.95
2018-10-02T12:41:46.510Z,7.90
2018-10-02T12:44:15.422Z,7.90
2018-10-02T12:46:44.391Z,8.05
2018-10-02T12:49:13.282Z,8.03
2018-10-02T12:51:42.986Z,7.86
2018-10-02T12:54:11.371Z,8.07
2018-10-02T12:56:39.686Z,7.93
2018-10-02T12:59:08.000Z,8.15
2018-10-02T13:01:36.306Z,7.98
2018-10-02T13:04:04.712Z,7.98
2018-10-02T13:06:33.030Z,8.28
2018-10-02T13:09:01.363Z,8.23
2018-10-02T13:11:29.694Z,8.14
2018-10-02T13:14:00.516Z,7.99
2018-10-02T13:16:28.854Z,8.11
2018-10-02T13:18:57.176Z,8.07
2018-10-02T13:21:25.951Z,8.00
2018-10-02T13:23:54.282Z,8.09
2018-10-02T13:26:22.606Z,8.07
2018-10-02T13:28:51.169Z,8.05
2018-10-02T13:31:19.571Z,8.07
2018-10-02T13:33:47.891Z,8.10
2018-10-02T13:36:16.191Z,8.22
2018-10-02T13:38:44.934Z,8.04
2018-10-02T13:41:13.251Z,8.19
2018-10-02T13:43:41.612Z,8.23
2018-10-02T13:46:09.912Z,8.14
2018-10-02T13:48:38.306Z,8.03
2018-10-02T13:51:07.055Z,8.12
2018-10-02T13:53:35.383Z,8.15
2018-10-02T13:56:03.690Z,8.12
2018-10-02T13:58:34.185Z,8.09
2018-10-02T14:01:02.515Z,7.99
2018-10-02T14:03:30.840Z,8.01
2018-10-02T14:05:59.139Z,8.10
2018-10-02T14:08:27.485Z,8.02
2018-10-02T14:10:56.982Z,8.08
2018-10-02T14:13:25.667Z,8.06
2018-10-02T14:15:54.010Z,8.11
2018-10-02T14:18:22.345Z,7.97
2018-10-02T14:20:50.762Z,7.94
2018-10-02T14:23:19.429Z,8.01
2018-10-02T14:25:47.743Z,8.04
2018-10-02T14:28:16.116Z,8.13
2018-10-02T14:30:44.428Z,8.06
2018-10-02T14:33:13.988Z,8.07
2018-10-02T14:35:42.983Z,8.11
2018-10-02T14:38:11.614Z,8.08
2018-10-02T14:40:39.985Z,8.12
2018-10-02T14:43:08.608Z,8.13
2018-10-02T14:45:37.451Z,8.19
2018-10-02T14:48:05.817Z,8.08
2018-10-02T14:51:00.725Z,8.20
2018-10-02T14:53:29.043Z,8.02
2018-10-02T14:55:57.355Z,8.18
2018-10-02T14:58:25.692Z,8.12
2018-10-02T15:00:54.166Z,8.18
2018-10-02T15:03:22.482Z,8.14
2018-10-02T15:05:50.963Z,8.15
2018-10-02T15:08:19.318Z,8.13
2018-10-02T15:10:48.356Z,8.03
2018-10-02T15:13:16.895Z,8.03
2018-10-02T15:15:45.481Z,7.96
2018-10-02T15:18:13.882Z,7.96
2018-10-02T15:20:42.603Z,8.01
2018-10-02T15:23:10.912Z,8.10
2018-10-02T15:25:39.211Z,8.14
2018-10-02T15:28:07.680Z,7.96
2018-10-02T15:30:36.327Z,7.97
2018-10-02T15:33:04.740Z,8.05
2018-10-02T15:35:33.064Z,8.09
2018-10-02T15:38:01.483Z,8.08
2018-10-02T15:40:29.762Z,8.14
2018-10-02T15:42:58.332Z,8.16
2018-10-02T15:45:26.959Z,8.15
2018-10-02T15:47:55.427Z,8.09
2018-10-02T15:50:23.936Z,7.98
2018-10-02T15:52:52.542Z,8.11
2018-10-02T15:55:21.018Z,8.09
2018-10-02T15:57:49.433Z,8.06
2018-10-02T16:00:18.094Z,8.08
2018-10-02T16:02:46.709Z,8.19
2018-10-02T16:05:15.445Z,8.10
2018-10-02T16:07:43.956Z,8.18
2018-10-02T16:10:12.414Z,8.16
2018-10-02T16:12:40.859Z,8.18
2018-10-02T16:15:09.377Z,8.22
2018-10-02T16:17:37.853Z,8.22
2018-10-02T16:20:06.739Z,8.27
2018-10-02T16:22:35.235Z,8.25
2018-10-02T16:25:03.788Z,8.24
2018-10-02T16:27:32.412Z,8.24
2018-10-02T16:30:00.922Z,8.30
2018-10-02T16:32:29.453Z,8.30
2018-10-02T16:34:58.098Z,8.32
2018-10-02T16:37:26.686Z,8.30
2018-10-02T16:39:55.239Z,8.43
2018-10-02T16:42:23.873Z,8.47
2018-10-02T16:44:52.470Z,8.42
2018-10-02T16:47:21.566Z,8.39
2018-10-02T16:49:50.181Z,8.39
2018-10-02T16:52:18.611Z,8.49
2018-10-02T16:54:47.540Z,8.44
2018-10-02T16:57:16.168Z,8.48
2018-10-02T16:59:44.759Z,8.50
2018-10-02T17:02:13.579Z,8.53
2018-10-02T17:04:42.108Z,8.53
2018-10-02T17:07:10.627Z,8.51
2018-10-02T17:09:39.019Z,8.54
2018-10-02T17:12:07.444Z,8.59
2018-10-02T17:14:35.816Z,8.66
2018-10-02T17:17:04.334Z,8.61
2018-10-02T17:19:32.855Z,8.77
2018-10-02T17:22:01.443Z,8.80
2018-10-02T17:24:29.992Z,8.74
2018-10-02T17:26:58.694Z,8.87
2018-10-02T17:29:27.187Z,8.80
2018-10-02T17:31:55.590Z,8.79
2018-10-02T17:34:24.044Z,8.84
2018-10-02T17:36:52.540Z,8.89
2018-10-02T17:39:21.060Z,8.88
2018-10-02T17:41:49.457Z,8.86
2018-10-02T17:44:18.902Z,8.87
2018-10-02T17:46:47.452Z,8.83
2018-10-02T17:49:15.987Z,8.88
2018-10-02T17:51:44.546Z,8.91
2018-10-02T17:54:13.006Z,8.93
2018-10-02T17:56:41.556Z,9.09
2018-10-02T17:59:10.005Z,9.05
2018-10-02T18:01:38.527Z,9.02
2018-10-02T18:04:07.183Z,9.07
2018-10-02T18:06:35.706Z,9.07
2018-10-02T18:09:05.322Z,9.15
2018-10-02T18:11:34.080Z,9.17
2018-10-02T18:14:02.682Z,9.14
2018-10-02T18:16:33.726Z,9.13
2018-10-02T18:19:02.269Z,9.17
2018-10-02T18:21:30.944Z,9.11
2018-10-02T18:23:59.683Z,9.09
2018-10-02T18:26:28.176Z,9.08
2018-10-02T18:28:56.661Z,9.16
2018-10-02T18:31:25.138Z,9.22
2018-10-02T18:33:53.644Z,9.21
2018-10-02T18:36:22.212Z,9.26
2018-10-02T18:38:50.741Z,9.29
2018-10-02T18:41:19.658Z,9.33
2018-10-02T18:43:48.185Z,9.28
2018-10-02T18:46:16.922Z,9.40
2018-10-02T18:48:45.869Z,9.40
2018-10-02T18:51:14.569Z,9.41
2018-10-02T18:53:43.273Z,9.37
2018-10-02T18:56:11.848Z,9.46
2018-10-02T18:58:40.442Z,9.40
2018-10-02T19:01:09.017Z,9.54
2018-10-02T19:03:37.629Z,9.42
2018-10-02T19:06:06.244Z,9.51
2018-10-02T19:08:39.872Z,9.46
2018-10-02T19:11:13.634Z,9.45
2018-10-02T19:13:42.347Z,9.41
2018-10-02T19:16:16.058Z,9.39
2018-10-02T19:18:44.780Z,9.45
2018-10-02T19:21:13.450Z,9.36
2018-10-02T19:23:42.054Z,9.34
2018-10-02T19:26:41.461Z,9.31
2018-10-02T19:29:10.360Z,9.39
2018-10-02T19:31:44.227Z,9.45
2018-10-02T19:34:12.868Z,9.45
2018-10-02T19:36:41.585Z,9.34
2018-10-02T19:39:18.263Z,9.39
2018-10-02T19:41:47.069Z,9.48
2018-10-02T19:44:15.646Z,9.46
2018-10-02T19:46:52.115Z,9.54
2018-10-02T19:49:22.308Z,9.49
2018-10-02T19:51:56.056Z,9.50
2018-10-02T19:54:25.488Z,9.55
2018-10-02T19:56:54.377Z,9.49
2018-10-02T19:59:23.277Z,9.53
2018-10-02T20:01:51.788Z,9.62
2018-10-02T20:04:20.486Z,9.60
2018-10-02T20:06:49.205Z,9.58
2018-10-02T20:09:17.772Z,9.63
2018-10-02T20:11:46.308Z,9.57
2018-10-02T20:14:15.046Z,9.58
2018-10-02T20:16:43.522Z,9.63
2018-10-02T20:19:12.204Z,9.59
2018-10-02T20:21:40.878Z,9.57
2018-10-02T20:24:09.482Z,9.59
2018-10-02T20:26:38.020Z,9.56
2018-10-02T20:29:06.669Z,9.58
2018-10-02T20:31:39.030Z,9.61
2018-10-02T20:34:07.559Z,9.61
2018-10-02T20:36:36.243Z,9.73
2018-10-02T20:39:06.150Z,9.73
2018-10-02T20:41:34.818Z,9.90
2018-10-02T20:44:03.611Z,9.89
2018-10-02T20:46:32.323Z,10.08
2018-10-02T20:49:01.254Z,9.97
2018-10-02T20:51:29.668Z,10.01
2018-10-02T20:53:58.171Z,9.74
2018-10-02T20:56:27.196Z,9.72
2018-10-02T20:58:55.620Z,9.73
2018-10-02T21:01:24.165Z,9.92
2018-10-02T21:03:52.841Z,9.92
2018-10-02T21:06:21.322Z,9.96
2018-10-02T21:08:49.751Z,9.94
2018-10-02T21:11:18.188Z,10.20
2018-10-02T21:13:46.600Z,9.99
2018-10-02T21:16:15.168Z,10.05
2018-10-02T21:18:43.633Z,10.23
2018-10-02T21:21:12.090Z,10.22
2018-10-02T21:23:40.637Z,10.20
2018-10-02T21:26:09.054Z,10.24
2018-10-02T21:28:37.603Z,10.17
2018-10-02T21:31:06.581Z,10.14
2018-10-02T21:33:35.006Z,10.22
2018-10-02T21:36:03.495Z,10.12
2018-10-02T21:38:32.275Z,10.19
2018-10-02T21:41:00.819Z,10.08
2018-10-02T21:43:29.283Z,9.87
2018-10-02T21:45:58.209Z,10.07
2018-10-02T21:48:27.211Z,9.91
2018-10-02T21:50:55.594Z,10.12
2018-10-02T21:53:24.022Z,9.96
2018-10-02T21:55:52.469Z,10.05
2018-10-02T21:58:20.952Z,10.02
2018-10-02T22:00:49.748Z,9.96
2018-10-02T22:03:18.160Z,9.94
2018-10-02T22:05:46.639Z,9.92
2018-10-02T22:08:15.331Z,9.90
2018-10-02T22:10:43.740Z,9.80
2018-10-02T22:13:12.261Z,9.89
2018-10-02T22:15:40.686Z,10.02
2018-10-02T22:18:09.095Z,9.98
2018-10-02T22:20:37.560Z,9.91
2018-10-02T22:23:06.040Z,10.00
2018-10-02T22:25:34.462Z,10.08
2018-10-02T22:28:02.988Z,10.13
2018-10-02T22:30:31.484Z,10.08
2018-10-02T22:33:00.006Z,9.95
2018-10-02T22:35:28.515Z,10.01
2018-10-02T22:37:56.948Z,9.95
2018-10-02T22:40:25.557Z,10.07
2018-10-02T22:42:53.989Z,9.99
2018-10-02T22:45:22.439Z,9.97
2018-10-02T22:47:50.920Z,10.00
2018-10-02T22:50:19.586Z,10.01
2018-10-02T22:52:47.963Z,9.99
2018-10-02T22:55:16.823Z,10.03
2018-10-02T22:57:50.659Z,9.99
2018-10-02T23:00:19.051Z,10.03
2018-10-02T23:05:59.870Z,10.06
2018-10-02T23:08:28.210Z,10.03
2018-10-02T23:10:56.496Z,9.94
2018-10-02T23:13:25.859Z,9.96
2018-10-02T23:15:54.231Z,10.01
2018-10-02T23:18:22.555Z,9.91
2018-10-02T23:20:50.903Z,10.07
2018-10-02T23:23:19.517Z,10.02
2018-10-02T23:25:47.855Z,10.06
2018-10-02T23:28:16.219Z,9.98
2018-10-02T23:30:44.534Z,10.05
2018-10-02T23:33:13.680Z,10.07
2018-10-02T23:35:42.024Z,10.02
2018-10-02T23:38:10.403Z,10.06
2018-10-02T23:40:38.774Z,10.02
2018-10-02T23:43:07.290Z,10.13
2018-10-02T23:45:35.622Z,10.09
2018-10-02T23:48:03.954Z,10.11
2018-10-02T23:50:32.354Z,10.05
2018-10-02T23:53:00.668Z,10.12
2018-10-02T23:55:28.996Z,10.03
2018-10-02T23:57:57.287Z,10.10
